Time;durP1;ratioP1;P1;durP2;ratioP2;P2;SDS_P1;SDS_P2;PMS_P1;PMS_P2;Temp;Humidity;BMP_temperature;BMP_pressure;BME280_temperature;BME280_humidity;BME280_pressure;Samples;Min_cycle;Max_cycle;Signal;HPM_P1;HPM_P2
2023/12/22 00:01:15;;;;;;;16.65;2.88;;;10.10;76.40;;;;;;5060420;28;20024;-81
2023/12/22 00:03:42;;;;;;;12.30;2.78;;;10.20;77.10;;;;;;5063159;28;20021;-82
2023/12/22 00:06:07;;;;;;;18.25;2.88;;;10.10;77.20;;;;;;5061165;28;20075;-81
2023/12/22 00:08:33;;;;;;;12.13;2.28;;;10.00;77.40;;;;;;5057933;28;20111;-82
2023/12/22 00:10:59;;;;;;;17.60;2.95;;;10.00;77.90;;;;;;5057781;28;20497;-82
2023/12/22 00:13:25;;;;;;;10.93;2.50;;;10.10;77.50;;;;;;5061781;28;20355;-81
2023/12/22 00:15:50;;;;;;;15.50;2.55;;;10.20;77.60;;;;;;5063810;28;20527;-82
2023/12/22 00:18:16;;;;;;;15.90;2.83;;;10.10;78.00;;;;;;5058030;28;20396;-82
2023/12/22 00:20:42;;;;;;;12.55;2.80;;;10.00;78.80;;;;;;5060228;28;20046;-81
2023/12/22 00:23:07;;;;;;;16.88;3.28;;;10.00;78.60;;;;;;5059555;28;20020;-82
2023/12/22 00:25:33;;;;;;;14.80;2.55;;;10.00;80.20;;;;;;5063210;28;20517;-82
2023/12/22 00:27:58;;;;;;;14.50;3.13;;;10.00;79.50;;;;;;5059041;28;20039;-81
2023/12/22 00:30:24;;;;;;;14.50;2.67;;;10.00;80.50;;;;;;5059629;28;20642;-82
2023/12/22 00:32:50;;;;;;;13.10;2.40;;;10.10;79.90;;;;;;5059052;28;20234;-82
2023/12/22 00:35:16;;;;;;;13.95;2.70;;;10.10;79.30;;;;;;5055932;28;20443;-82
2023/12/22 00:37:41;;;;;;;14.13;2.50;;;10.20;79.50;;;;;;5058364;28;20311;-82
2023/12/22 00:40:09;;;;;;;10.90;2.42;;;10.20;79.80;;;;;;5061253;28;20393;-82
2023/12/22 00:42:35;;;;;;;16.83;2.10;;;10.20;79.60;;;;;;5059720;28;20020;-82
2023/12/22 00:45:00;;;;;;;15.48;2.53;;;10.20;80.70;;;;;;5060486;28;20032;-82
2023/12/22 00:47:26;;;;;;;11.65;2.17;;;10.10;80.40;;;;;;5056815;28;20054;-82
2023/12/22 00:49:52;;;;;;;13.88;2.50;;;10.10;81.80;;;;;;5059982;28;20040;-82
2023/12/22 00:52:17;;;;;;;9.68;2.13;;;10.10;81.10;;;;;;5058067;28;20120;-82
2023/12/22 00:54:43;;;;;;;12.73;2.15;;;10.10;82.00;;;;;;5060658;28;20024;-82
2023/12/22 00:57:09;;;;;;;14.43;2.00;;;10.10;82.00;;;;;;5059265;28;20064;-82
2023/12/22 00:59:34;;;;;;;11.88;2.17;;;10.20;82.60;;;;;;5060351;28;20458;-82
2023/12/22 01:02:00;;;;;;;14.10;2.53;;;10.20;82.70;;;;;;5059444;28;20028;-82
2023/12/22 01:04:25;;;;;;;9.73;2.03;;;10.20;84.00;;;;;;5058911;28;20023;-82
2023/12/22 01:06:52;;;;;;;8.60;1.92;;;10.20;84.80;;;;;;5055718;28;20493;-83
2023/12/22 01:09:19;;;;;;;13.57;2.33;;;10.20;85.90;;;;;;5060166;28;20020;-82
2023/12/22 01:11:45;;;;;;;11.60;2.53;;;10.30;86.50;;;;;;5061711;28;20031;-82
2023/12/22 01:14:13;;;;;;;11.23;2.20;;;10.30;88.40;;;;;;5062858;28;20068;-83
2023/12/22 01:16:39;;;;;;;12.55;2.20;;;10.20;90.70;;;;;;5061896;28;20028;-82
2023/12/22 01:19:05;;;;;;;8.50;2.63;;;10.20;91.10;;;;;;5060899;28;20079;-81
2023/12/22 01:21:30;;;;;;;8.15;1.75;;;10.20;92.70;;;;;;5061359;28;20456;-82
2023/12/22 01:23:58;;;;;;;8.05;1.73;;;10.20;93.20;;;;;;5061489;28;20040;-82
2023/12/22 01:26:24;;;;;;;8.32;2.00;;;10.30;93.90;;;;;;5075058;28;20097;-82
2023/12/22 01:28:50;;;;;;;6.47;1.70;;;10.30;94.40;;;;;;5065967;28;20476;-82
2023/12/22 01:31:15;;;;;;;7.13;1.98;;;10.30;94.70;;;;;;5061770;28;20032;-82
2023/12/22 01:33:41;;;;;;;10.68;1.70;;;10.40;95.00;;;;;;5059609;28;20060;-82
2023/12/22 01:36:07;;;;;;;7.38;1.58;;;10.40;95.80;;;;;;5061757;28;20042;-82
2023/12/22 01:38:32;;;;;;;11.02;2.22;;;10.30;96.00;;;;;;5061959;28;20086;-82
2023/12/22 01:40:58;;;;;;;7.18;1.58;;;10.40;97.60;;;;;;5061330;28;20097;-82
2023/12/22 01:43:24;;;;;;;8.77;1.75;;;10.40;99.40;;;;;;5061236;28;20055;-82
2023/12/22 01:45:56;;;;;;;8.15;1.92;;;10.40;99.90;;;;;;5063148;28;20446;-82
2023/12/22 01:48:23;;;;;;;8.88;1.70;;;10.40;99.90;;;;;;5058100;28;20107;-82
2023/12/22 01:50:52;;;;;;;9.75;1.50;;;10.40;99.90;;;;;;5065152;28;20478;-82
2023/12/22 01:53:19;;;;;;;10.57;2.05;;;10.30;99.90;;;;;;5062882;28;20027;-82
2023/12/22 01:55:46;;;;;;;9.10;2.60;;;10.30;99.90;;;;;;5077234;28;20919;-82
2023/12/22 01:58:12;;;;;;;11.38;1.85;;;10.30;99.90;;;;;;5085973;28;20028;-81
2023/12/22 02:00:38;;;;;;;6.57;1.70;;;10.20;99.90;;;;;;5085250;28;20043;-82
2023/12/22 02:03:04;;;;;;;10.30;1.55;;;10.20;99.90;;;;;;5083599;28;20099;-82
2023/12/22 02:05:30;;;;;;;8.10;2.00;;;10.10;99.90;;;;;;5073665;28;20120;-83
2023/12/22 02:07:55;;;;;;;7.18;2.10;;;10.00;99.90;;;;;;5064923;28;20451;-83
2023/12/22 02:10:21;;;;;;;7.80;1.85;;;9.80;99.90;;;;;;5064577;28;20028;-82
2023/12/22 02:12:47;;;;;;;10.57;1.77;;;9.70;99.90;;;;;;5062153;28;20037;-82
2023/12/22 02:15:13;;;;;;;7.25;1.63;;;9.70;99.90;;;;;;5063064;28;20047;-83
2023/12/22 02:17:45;;;;;;;11.18;2.10;;;9.70;99.90;;;;;;5058845;28;20036;-83
2023/12/22 02:20:11;;;;;;;7.65;2.00;;;9.70;99.90;;;;;;5062903;28;20078;-82
2023/12/22 02:22:37;;;;;;;6.72;2.33;;;9.70;99.90;;;;;;5058148;28;20032;-82
2023/12/22 02:25:02;;;;;;;8.98;1.88;;;9.60;99.90;;;;;;5064421;28;20029;-82
2023/12/22 02:27:33;;;;;;;7.43;1.92;;;9.50;99.90;;;;;;5061868;28;20518;-82
2023/12/22 02:30:23;;;;;;;11.27;2.03;;;9.40;99.90;;;;;;5066738;28;20052;-82
2023/12/22 02:32:52;;;;;;;6.70;2.25;;;9.40;99.90;;;;;;5061890;28;20520;-82
2023/12/22 02:35:20;;;;;;;9.32;2.05;;;9.50;99.90;;;;;;5062000;28;20052;-82
2023/12/22 02:37:47;;;;;;;6.70;1.45;;;9.50;99.90;;;;;;5062062;28;20060;-82
2023/12/22 02:40:14;;;;;;;8.38;1.95;;;9.60;99.90;;;;;;5062708;28;20052;-82
2023/12/22 02:42:41;;;;;;;6.90;1.60;;;9.70;99.90;;;;;;5062616;28;20021;-82
2023/12/22 02:45:14;;;;;;;9.07;1.70;;;9.70;99.90;;;;;;5064109;28;20070;-82
2023/12/22 02:47:40;;;;;;;9.05;2.03;;;9.80;99.90;;;;;;5054584;28;20120;-82
2023/12/22 02:50:06;;;;;;;6.88;1.50;;;9.90;99.90;;;;;;5058921;28;20028;-82
2023/12/22 02:52:32;;;;;;;4.53;2.13;;;10.00;99.90;;;;;;5063799;28;20043;-82
2023/12/22 02:54:58;;;;;;;4.45;1.45;;;10.00;99.90;;;;;;5065099;28;20033;-82
2023/12/22 02:57:23;;;;;;;6.63;2.00;;;10.00;99.90;;;;;;5062879;28;20032;-82
2023/12/22 02:59:49;;;;;;;6.50;1.30;;;10.10;99.90;;;;;;5063783;28;20059;-82
2023/12/22 03:02:15;;;;;;;7.20;1.75;;;10.10;99.90;;;;;;5059745;28;20499;-82
2023/12/22 03:04:41;;;;;;;6.88;1.38;;;10.20;99.90;;;;;;5062831;28;20059;-82
2023/12/22 03:07:06;;;;;;;4.82;1.45;;;10.30;99.90;;;;;;5062437;28;20472;-82
2023/12/22 03:09:34;;;;;;;4.97;1.48;;;10.30;99.90;;;;;;5061873;28;20520;-82
2023/12/22 03:12:01;;;;;;;8.98;1.60;;;10.30;99.90;;;;;;5063411;28;21244;-82
2023/12/22 03:14:30;;;;;;;5.22;1.00;;;10.40;99.90;;;;;;5062619;28;20028;-82
2023/12/22 03:16:56;;;;;;;3.38;1.17;;;10.40;99.90;;;;;;5059184;28;20029;-82
2023/12/22 03:19:22;;;;;;;5.22;1.38;;;10.40;99.90;;;;;;5058636;28;20035;-82
2023/12/22 03:21:48;;;;;;;3.88;1.30;;;10.30;99.90;;;;;;5061599;28;20028;-82
2023/12/22 03:24:14;;;;;;;3.25;1.10;;;10.20;99.90;;;;;;5064955;28;20384;-82
2023/12/22 03:26:39;;;;;;;3.65;1.10;;;10.20;99.90;;;;;;5061768;28;20116;-82
2023/12/22 03:29:05;;;;;;;3.10;1.23;;;10.20;99.90;;;;;;5060847;28;20134;-82
2023/12/22 03:31:31;;;;;;;2.88;1.20;;;10.10;99.90;;;;;;5060418;28;20044;-82
2023/12/22 03:33:56;;;;;;;4.90;1.27;;;10.10;99.90;;;;;;5061553;28;20531;-82
2023/12/22 03:36:22;;;;;;;2.42;0.90;;;10.10;99.90;;;;;;5061838;28;20028;-82
2023/12/22 03:38:48;;;;;;;4.68;1.55;;;10.10;99.90;;;;;;5064559;28;20641;-82
2023/12/22 03:41:13;;;;;;;2.63;0.90;;;10.10;99.90;;;;;;5059469;28;20045;-82
2023/12/22 03:43:39;;;;;;;4.95;1.58;;;10.00;99.90;;;;;;5064360;28;20051;-82
2023/12/22 03:46:04;;;;;;;1.38;0.93;;;10.20;99.90;;;;;;5062749;28;20440;-82
2023/12/22 03:48:30;;;;;;;4.72;1.45;;;10.20;99.90;;;;;;5062563;28;20107;-82
2023/12/22 03:50:56;;;;;;;3.63;1.30;;;10.20;99.90;;;;;;5060249;28;20041;-82
2023/12/22 03:53:21;;;;;;;3.78;1.63;;;10.20;99.90;;;;;;5057769;28;20522;-82
2023/12/22 03:55:47;;;;;;;4.70;1.27;;;10.20;99.90;;;;;;5064028;28;20033;-82
2023/12/22 03:58:12;;;;;;;4.32;1.13;;;10.20;99.90;;;;;;5057582;28;20539;-82
2023/12/22 04:00:38;;;;;;;6.63;1.25;;;10.20;99.90;;;;;;5059549;28;20498;-82
2023/12/22 04:03:04;;;;;;;3.78;1.25;;;10.20;99.90;;;;;;5059276;28;20030;-82
2023/12/22 04:05:30;;;;;;;4.88;1.20;;;10.30;99.90;;;;;;5060479;28;21738;-82
2023/12/22 04:07:55;;;;;;;2.85;1.00;;;10.30;99.90;;;;;;5063440;28;20230;-81
2023/12/22 04:10:21;;;;;;;6.35;1.33;;;10.40;99.90;;;;;;5057539;28;20020;-82
2023/12/22 04:12:47;;;;;;;5.13;1.40;;;10.30;99.90;;;;;;5059122;28;20021;-83
2023/12/22 04:15:13;;;;;;;4.32;1.05;;;10.30;99.90;;;;;;5057008;28;20087;-82
2023/12/22 04:17:38;;;;;;;4.72;1.00;;;10.30;99.90;;;;;;5051283;28;20476;-82
2023/12/22 04:20:06;;;;;;;2.67;0.90;;;10.40;99.90;;;;;;5058791;28;20039;-82
2023/12/22 04:22:32;;;;;;;5.57;1.38;;;10.40;99.90;;;;;;5053486;28;20150;-82
2023/12/22 04:24:58;;;;;;;2.08;1.10;;;10.50;99.90;;;;;;5053934;28;20112;-82
2023/12/22 04:27:24;;;;;;;3.42;1.33;;;10.60;99.90;;;;;;5061566;28;20479;-82
2023/12/22 04:29:49;;;;;;;5.47;1.20;;;10.60;99.90;;;;;;5060044;28;20492;-82
2023/12/22 04:32:15;;;;;;;5.40;1.20;;;10.60;99.90;;;;;;5060806;28;20447;-82
2023/12/22 04:34:41;;;;;;;5.05;1.05;;;10.70;99.90;;;;;;5061917;28;20024;-82
2023/12/22 04:37:06;;;;;;;3.17;1.20;;;10.70;99.90;;;;;;5061606;28;20040;-82
2023/12/22 04:39:32;;;;;;;5.93;1.42;;;10.80;99.90;;;;;;5061561;28;20079;-82
2023/12/22 04:41:57;;;;;;;3.17;1.17;;;10.70;99.90;;;;;;5064170;28;20036;-82
2023/12/22 04:44:23;;;;;;;4.13;1.10;;;10.80;99.90;;;;;;5059162;28;20033;-82
2023/12/22 04:46:50;;;;;;;3.83;1.13;;;10.80;99.90;;;;;;5058904;28;20021;-82
2023/12/22 04:49:15;;;;;;;4.50;1.10;;;10.80;99.90;;;;;;5055497;28;20024;-82
2023/12/22 04:51:41;;;;;;;4.00;1.15;;;10.80;99.90;;;;;;5060168;28;20035;-82
2023/12/22 04:54:06;;;;;;;2.38;1.00;;;10.80;99.90;;;;;;5057241;28;20094;-82
2023/12/22 04:56:32;;;;;;;5.35;1.20;;;10.90;99.90;;;;;;5062064;28;20025;-82
2023/12/22 04:58:58;;;;;;;3.85;1.10;;;10.90;99.90;;;;;;5062996;28;20033;-82
2023/12/22 05:01:23;;;;;;;2.75;1.10;;;10.90;99.90;;;;;;5056827;28;20120;-82
2023/12/22 05:03:49;;;;;;;4.97;1.10;;;10.90;99.90;;;;;;5056426;28;20033;-82
2023/12/22 05:06:15;;;;;;;2.72;0.68;;;11.00;99.90;;;;;;5061015;28;20339;-82
2023/12/22 05:08:40;;;;;;;3.95;0.95;;;11.00;99.90;;;;;;5060369;28;20147;-82
2023/12/22 05:11:06;;;;;;;2.42;0.70;;;11.00;99.90;;;;;;5061215;28;20036;-82
2023/12/22 05:13:31;;;;;;;4.85;0.95;;;11.10;99.90;;;;;;5060907;28;20094;-82
2023/12/22 05:15:57;;;;;;;2.67;0.77;;;11.00;99.90;;;;;;5060743;28;20024;-82
2023/12/22 05:18:23;;;;;;;5.70;0.93;;;11.10;99.90;;;;;;5061555;28;20047;-81
2023/12/22 05:20:49;;;;;;;4.72;0.98;;;11.00;99.90;;;;;;5058790;28;20508;-82
2023/12/22 05:23:16;;;;;;;3.38;1.02;;;11.00;99.90;;;;;;5062317;28;20036;-82
2023/12/22 05:25:41;;;;;;;4.18;1.10;;;11.00;99.90;;;;;;5065183;28;20408;-82
2023/12/22 05:28:07;;;;;;;2.20;0.60;;;11.00;99.90;;;;;;5065937;28;20036;-82
2023/12/22 05:30:32;;;;;;;2.00;0.90;;;11.10;99.90;;;;;;5064913;28;20071;-82
2023/12/22 05:32:58;;;;;;;2.53;1.00;;;11.10;99.90;;;;;;5063349;28;20028;-82
2023/12/22 05:35:24;;;;;;;3.00;1.02;;;11.00;99.90;;;;;;5065217;28;20032;-81
2023/12/22 05:37:49;;;;;;;4.97;0.85;;;10.80;99.90;;;;;;5061861;28;20039;-81
2023/12/22 05:40:16;;;;;;;4.45;1.08;;;10.60;99.90;;;;;;5060312;28;21199;-82
2023/12/22 05:42:41;;;;;;;5.22;1.02;;;10.50;99.90;;;;;;5064051;28;20028;-82
2023/12/22 05:45:08;;;;;;;3.70;0.93;;;10.50;99.90;;;;;;5065232;28;20036;-82
2023/12/22 05:47:33;;;;;;;3.92;1.20;;;10.40;99.90;;;;;;5062669;28;20021;-81
2023/12/22 05:49:59;;;;;;;6.13;0.90;;;10.40;99.90;;;;;;5067242;28;20395;-82
2023/12/22 05:52:25;;;;;;;2.53;0.90;;;10.40;99.90;;;;;;5065857;28;20388;-82
2023/12/22 05:54:50;;;;;;;6.97;1.05;;;10.40;99.90;;;;;;5066211;28;20534;-82
2023/12/22 05:57:16;;;;;;;1.98;1.00;;;10.50;99.90;;;;;;5060872;28;20305;-82
2023/12/22 05:59:42;;;;;;;1.33;0.80;;;10.50;99.90;;;;;;5062025;28;20027;-82
2023/12/22 06:02:08;;;;;;;2.42;0.80;;;10.50;99.90;;;;;;5062481;28;20032;-82
2023/12/22 06:04:34;;;;;;;2.25;0.80;;;10.60;99.90;;;;;;5066294;28;20119;-82
2023/12/22 06:07:00;;;;;;;2.67;0.73;;;10.70;99.90;;;;;;5061905;28;20057;-83
2023/12/22 06:09:26;;;;;;;2.88;0.70;;;10.70;99.90;;;;;;5065557;28;20032;-82
2023/12/22 06:11:52;;;;;;;3.60;0.95;;;10.80;99.90;;;;;;5063643;28;20033;-82
2023/12/22 06:14:17;;;;;;;3.90;0.55;;;10.90;99.90;;;;;;5064892;28;20045;-82
2023/12/22 06:16:43;;;;;;;1.55;0.50;;;10.90;99.90;;;;;;5062748;28;20063;-82
2023/12/22 06:19:09;;;;;;;2.53;0.95;;;11.00;99.90;;;;;;5056960;28;20492;-83
2023/12/22 06:21:38;;;;;;;0.65;0.55;;;11.10;99.90;;;;;;5059563;28;20074;-83
2023/12/22 06:24:03;;;;;;;2.92;0.82;;;11.10;99.90;;;;;;5065758;28;20057;-83
2023/12/22 06:26:29;;;;;;;1.48;0.60;;;11.00;99.90;;;;;;5062176;28;20448;-83
2023/12/22 06:28:56;;;;;;;5.25;1.00;;;11.10;99.90;;;;;;5064911;28;20078;-83
2023/12/22 06:31:22;;;;;;;1.70;0.60;;;11.10;99.90;;;;;;5062734;28;20344;-83
2023/12/22 06:33:49;;;;;;;2.22;0.82;;;11.10;99.90;;;;;;5063979;28;20036;-83
2023/12/22 06:36:20;;;;;;;1.35;0.50;;;11.10;99.90;;;;;;5063812;28;20500;-83
2023/12/22 06:38:47;;;;;;;4.03;0.73;;;11.10;99.90;;;;;;5060337;28;20029;-83
2023/12/22 06:41:22;;;;;;;2.22;0.60;;;11.10;99.90;;;;;;5062208;28;20516;-83
2023/12/22 06:43:48;;;;;;;1.40;0.40;;;11.20;99.90;;;;;;5066353;28;20484;-83
2023/12/22 06:46:16;;;;;;;2.60;0.52;;;11.20;99.90;;;;;;5063181;28;20038;-83
2023/12/22 06:48:42;;;;;;;2.22;0.60;;;11.30;99.90;;;;;;5063656;28;20123;-83
2023/12/22 06:51:07;;;;;;;1.27;0.60;;;11.30;99.90;;;;;;5064374;28;20044;-83
2023/12/22 06:53:33;;;;;;;2.25;0.50;;;11.30;99.90;;;;;;5066213;28;20032;-82
2023/12/22 06:55:58;;;;;;;1.85;0.47;;;11.40;99.90;;;;;;5061713;28;20029;-82
2023/12/22 06:58:25;;;;;;;1.80;0.50;;;11.30;99.90;;;;;;5062832;28;20389;-82
2023/12/22 07:00:51;;;;;;;2.88;0.68;;;11.30;99.90;;;;;;5064264;28;20043;-83
2023/12/22 07:03:19;;;;;;;0.82;0.57;;;11.30;99.90;;;;;;5062533;28;20029;-83
2023/12/22 07:05:44;;;;;;;2.97;0.57;;;11.30;99.90;;;;;;5061088;28;20020;-82
2023/12/22 07:08:10;;;;;;;4.32;0.60;;;11.40;99.90;;;;;;5064225;28;20035;-82
2023/12/22 07:10:36;;;;;;;3.70;0.82;;;11.40;99.90;;;;;;5063913;28;20191;-83
2023/12/22 07:13:02;;;;;;;3.20;0.60;;;11.30;99.90;;;;;;5066685;28;20074;-83
2023/12/22 07:15:28;;;;;;;1.05;0.50;;;11.30;99.90;;;;;;5072622;28;20031;-82
2023/12/22 07:17:54;;;;;;;1.88;0.80;;;11.30;99.90;;;;;;5067097;28;20119;-83
2023/12/22 07:20:19;;;;;;;0.80;0.50;;;11.30;99.90;;;;;;5062269;28;20374;-82
2023/12/22 07:22:45;;;;;;;1.83;0.60;;;11.30;99.90;;;;;;5060323;28;20023;-83
2023/12/22 07:25:11;;;;;;;4.88;0.80;;;11.30;99.90;;;;;;5060678;28;20536;-83
2023/12/22 07:27:37;;;;;;;1.15;0.65;;;11.30;99.90;;;;;;5063708;28;20107;-83
2023/12/22 07:30:03;;;;;;;0.88;0.60;;;11.30;99.90;;;;;;5063210;28;20040;-83
2023/12/22 07:32:29;;;;;;;0.95;0.70;;;11.30;99.90;;;;;;5061913;28;20048;-83
2023/12/22 07:34:55;;;;;;;2.17;0.65;;;11.30;99.90;;;;;;5060121;28;20050;-83
2023/12/22 07:37:21;;;;;;;0.65;0.50;;;11.30;99.90;;;;;;5062374;28;20565;-82
2023/12/22 07:39:46;;;;;;;0.88;0.40;;;11.30;99.90;;;;;;5063163;28;20091;-82
2023/12/22 07:42:12;;;;;;;2.40;0.60;;;11.20;99.90;;;;;;5064475;28;20472;-83
2023/12/22 07:44:37;;;;;;;4.57;0.82;;;11.30;99.90;;;;;;5063337;28;20029;-82
2023/12/22 07:47:04;;;;;;;0.60;0.40;;;11.20;99.90;;;;;;5061886;28;20028;-82
2023/12/22 07:49:30;;;;;;;1.63;0.63;;;11.20;99.90;;;;;;5061776;28;20209;-82
2023/12/22 07:51:55;;;;;;;4.30;0.60;;;11.20;99.90;;;;;;5063225;28;20511;-82
2023/12/22 07:54:21;;;;;;;2.45;0.75;;;11.20;99.90;;;;;;5064414;28;20089;-82
2023/12/22 07:56:47;;;;;;;2.65;0.60;;;11.30;99.90;;;;;;5064626;28;20055;-82
2023/12/22 07:59:12;;;;;;;3.03;0.70;;;11.30;99.90;;;;;;5063900;28;20090;-82
2023/12/22 08:01:38;;;;;;;2.35;0.80;;;11.30;99.90;;;;;;5054565;28;20021;-82
2023/12/22 08:04:04;;;;;;;4.57;0.80;;;11.30;99.90;;;;;;5063124;28;20032;-82
2023/12/22 08:06:30;;;;;;;1.45;0.60;;;11.30;99.90;;;;;;5062599;28;20388;-82
2023/12/22 08:08:55;;;;;;;2.28;0.63;;;11.40;99.90;;;;;;5062750;28;20730;-83
2023/12/22 08:11:23;;;;;;;1.23;0.60;;;11.30;99.90;;;;;;5056199;28;20739;-83
2023/12/22 08:13:49;;;;;;;4.28;1.15;;;11.40;99.90;;;;;;5057196;28;20032;-83
2023/12/22 08:16:15;;;;;;;5.72;0.75;;;11.30;99.90;;;;;;5057448;28;20040;-82
2023/12/22 08:18:40;;;;;;;2.05;0.60;;;11.30;99.90;;;;;;5062658;28;20040;-82
2023/12/22 08:21:06;;;;;;;1.15;0.40;;;11.20;99.90;;;;;;5056070;28;20051;-82
2023/12/22 08:23:32;;;;;;;3.20;0.73;;;11.20;99.90;;;;;;5064924;28;20130;-82
2023/12/22 08:25:58;;;;;;;2.42;0.63;;;11.20;99.90;;;;;;5059538;28;20039;-82
2023/12/22 08:28:23;;;;;;;2.22;0.70;;;11.30;99.90;;;;;;5061003;28;20065;-83
2023/12/22 08:30:49;;;;;;;3.50;0.80;;;11.30;99.90;;;;;;5061892;28;20036;-83
2023/12/22 08:33:15;;;;;;;3.72;0.70;;;11.30;99.90;;;;;;5061113;28;20378;-83
2023/12/22 08:35:41;;;;;;;2.58;0.60;;;11.30;99.90;;;;;;5064077;28;20040;-82
2023/12/22 08:38:07;;;;;;;3.88;0.77;;;11.30;99.90;;;;;;5064042;28;20040;-82
2023/12/22 08:40:32;;;;;;;1.70;0.65;;;11.30;99.90;;;;;;5063325;28;20045;-83
2023/12/22 08:42:59;;;;;;;6.30;0.95;;;11.30;99.90;;;;;;5060821;28;20419;-82
2023/12/22 08:45:28;;;;;;;2.33;0.70;;;11.30;99.90;;;;;;5061322;28;20025;-81
2023/12/22 08:47:55;;;;;;;4.07;0.90;;;11.20;99.90;;;;;;5062552;28;20078;-83
2023/12/22 08:50:21;;;;;;;3.30;0.70;;;11.30;99.90;;;;;;5060280;28;20101;-82
2023/12/22 08:52:46;;;;;;;3.50;0.90;;;11.30;99.90;;;;;;5057685;28;20081;-83
2023/12/22 08:55:12;;;;;;;2.42;0.90;;;11.20;99.90;;;;;;5063907;28;20024;-82
2023/12/22 08:57:39;;;;;;;2.42;0.70;;;11.30;99.90;;;;;;5064552;28;20073;-81
2023/12/22 09:00:05;;;;;;;3.08;0.85;;;11.30;99.90;;;;;;5060886;28;20032;-83
2023/12/22 09:02:31;;;;;;;5.15;0.88;;;11.20;99.90;;;;;;5062383;28;20063;-80
2023/12/22 09:04:56;;;;;;;3.38;0.90;;;11.20;99.90;;;;;;5067657;28;20052;-83
2023/12/22 09:07:22;;;;;;;4.93;1.02;;;11.10;99.90;;;;;;5060711;28;20111;-83
2023/12/22 09:09:48;;;;;;;3.10;0.77;;;11.20;99.90;;;;;;5064264;28;20708;-83
2023/12/22 09:12:14;;;;;;;4.63;1.20;;;11.30;99.90;;;;;;5065714;28;20177;-83
2023/12/22 09:14:39;;;;;;;3.58;0.85;;;11.40;99.90;;;;;;5066370;28;20078;-83
2023/12/22 09:17:05;;;;;;;2.15;0.80;;;11.50;99.90;;;;;;5067827;28;20380;-82
2023/12/22 09:19:33;;;;;;;2.88;0.90;;;11.50;99.90;;;;;;5063946;28;20032;-83
2023/12/22 09:21:59;;;;;;;2.97;1.13;;;11.50;99.90;;;;;;5063167;28;20059;-83
2023/12/22 09:24:25;;;;;;;3.33;0.63;;;11.60;99.90;;;;;;5068673;28;20460;-83
2023/12/22 09:26:51;;;;;;;1.17;0.70;;;11.60;99.90;;;;;;5063940;28;20036;-83
2023/12/22 09:29:17;;;;;;;2.05;0.60;;;11.60;99.90;;;;;;5063095;28;20024;-83
2023/12/22 09:31:42;;;;;;;2.35;0.90;;;11.60;99.90;;;;;;5067271;28;20056;-83
2023/12/22 09:34:08;;;;;;;4.45;0.88;;;11.70;99.90;;;;;;5066674;28;20071;-83
2023/12/22 09:36:33;;;;;;;4.35;0.80;;;11.70;99.90;;;;;;5067728;28;20063;-82
2023/12/22 09:38:59;;;;;;;4.40;0.93;;;11.80;99.90;;;;;;5063240;28;20064;-83
2023/12/22 09:41:25;;;;;;;6.47;1.20;;;11.70;99.90;;;;;;5066513;28;20063;-83
2023/12/22 09:43:52;;;;;;;4.45;1.10;;;11.70;99.90;;;;;;5065221;28;20036;-82
2023/12/22 09:46:20;;;;;;;6.40;1.00;;;11.60;99.90;;;;;;5065701;28;20027;-83
2023/12/22 09:48:46;;;;;;;7.13;1.38;;;11.70;99.90;;;;;;5065381;28;20021;-83
2023/12/22 09:51:14;;;;;;;7.07;1.65;;;11.60;99.90;;;;;;5064151;28;20033;-83
2023/12/22 09:53:41;;;;;;;3.30;0.98;;;11.60;99.90;;;;;;5059893;28;20099;-84
2023/12/22 09:56:07;;;;;;;7.13;1.30;;;11.60;99.90;;;;;;5061784;28;20029;-83
2023/12/22 09:58:35;;;;;;;7.95;1.50;;;11.60;99.90;;;;;;5063314;28;20028;-82
2023/12/22 10:01:05;;;;;;;4.05;1.55;;;11.60;99.90;;;;;;5062825;28;20209;-83
2023/12/22 10:03:34;;;;;;;8.18;1.58;;;11.50;99.90;;;;;;5066188;28;20036;-83
2023/12/22 10:06:00;;;;;;;9.10;1.40;;;11.60;99.90;;;;;;5062533;28;20390;-83
2023/12/22 10:08:26;;;;;;;7.10;1.52;;;11.60;99.90;;;;;;5062251;28;20437;-84
2023/12/22 10:10:54;;;;;;;6.53;1.52;;;11.70;99.90;;;;;;5059143;28;20488;-84
2023/12/22 10:13:19;;;;;;;5.85;1.38;;;11.80;99.90;;;;;;5058490;28;20153;-83
2023/12/22 10:15:46;;;;;;;10.63;1.48;;;12.00;99.90;;;;;;5047739;28;20511;-82
2023/12/22 10:18:13;;;;;;;10.23;1.48;;;12.00;99.90;;;;;;5067314;28;20033;-83
2023/12/22 10:20:39;;;;;;;9.10;1.95;;;12.10;99.90;;;;;;5064570;28;20031;-83
2023/12/22 10:23:04;;;;;;;12.95;1.80;;;12.10;99.90;;;;;;5064704;28;20028;-83
2023/12/22 10:25:31;;;;;;;7.95;2.42;;;12.00;99.70;;;;;;5060432;28;20032;-82
2023/12/22 10:27:57;;;;;;;10.95;1.52;;;12.00;99.90;;;;;;5062905;28;20025;-82
2023/12/22 10:30:24;;;;;;;5.65;1.40;;;11.90;99.90;;;;;;5060787;28;20032;-82
2023/12/22 10:32:51;;;;;;;9.45;1.50;;;11.90;99.90;;;;;;5062696;28;20411;-83
2023/12/22 10:35:17;;;;;;;8.75;1.70;;;11.90;99.90;;;;;;5064356;28;20033;-82
2023/12/22 10:37:45;;;;;;;8.70;1.90;;;11.90;99.90;;;;;;5063814;28;20087;-83
2023/12/22 10:40:12;;;;;;;8.23;1.83;;;12.00;99.90;;;;;;5061421;28;20723;-82
2023/12/22 10:42:37;;;;;;;6.85;1.60;;;12.00;99.70;;;;;;5067305;28;20032;-83
2023/12/22 10:45:03;;;;;;;8.30;1.77;;;12.10;96.60;;;;;;5063439;28;20484;-83
2023/12/22 10:47:29;;;;;;;6.18;1.42;;;12.20;96.80;;;;;;5068296;28;20033;-83
2023/12/22 10:49:55;;;;;;;9.45;1.50;;;12.70;95.20;;;;;;5071474;28;20084;-82
2023/12/22 10:52:20;;;;;;;6.32;1.40;;;13.20;91.20;;;;;;5081447;28;20033;-84
2023/12/22 10:54:48;;;;;;;9.70;1.70;;;13.60;89.70;;;;;;5090711;28;20059;-84
2023/12/22 10:57:16;;;;;;;7.45;1.75;;;13.70;83.20;;;;;;5071682;28;20032;-82
2023/12/22 10:59:46;;;;;;;5.75;1.40;;;13.30;85.40;;;;;;5061658;28;20036;-82
2023/12/22 11:02:17;;;;;;;6.10;1.10;;;13.00;90.10;;;;;;5060101;28;20474;-83
2023/12/22 11:04:54;;;;;;;10.55;1.77;;;12.80;90.00;;;;;;5084415;28;20052;-83
2023/12/22 11:07:24;;;;;;;9.93;1.80;;;12.70;90.40;;;;;;5085107;28;20021;-83
2023/12/22 11:09:54;;;;;;;5.13;1.23;;;12.90;89.70;;;;;;5064105;28;20088;-83
2023/12/22 11:12:20;;;;;;;6.25;1.38;;;13.50;86.60;;;;;;5064827;28;20024;-83
2023/12/22 11:14:50;;;;;;;10.63;1.63;;;13.70;82.50;;;;;;5060498;28;20036;-83
2023/12/22 11:17:20;;;;;;;9.63;1.75;;;13.80;82.60;;;;;;5057643;28;20073;-83
2023/12/22 11:19:47;;;;;;;7.82;2.03;;;13.80;81.90;;;;;;5066388;28;20032;-83
2023/12/22 11:22:14;;;;;;;5.47;1.33;;;13.70;80.60;;;;;;5064716;28;20147;-83
2023/12/22 11:24:42;;;;;;;6.72;1.98;;;13.50;81.80;;;;;;5066219;28;20051;-83
2023/12/22 11:27:09;;;;;;;11.48;2.17;;;13.40;83.50;;;;;;5059652;28;20120;-83
2023/12/22 11:29:37;;;;;;;11.00;2.10;;;13.10;83.80;;;;;;5060204;28;20599;-83
2023/12/22 11:32:05;;;;;;;9.05;1.45;;;13.00;87.10;;;;;;5063246;28;20458;-83
2023/12/22 11:34:32;;;;;;;9.05;1.60;;;13.00;85.80;;;;;;5063816;28;20048;-83
2023/12/22 11:37:00;;;;;;;7.43;1.60;;;12.90;84.90;;;;;;5065431;28;20029;-83
2023/12/22 11:39:25;;;;;;;5.80;1.40;;;12.70;87.10;;;;;;5063130;28;20045;-83
2023/12/22 11:41:54;;;;;;;8.68;1.60;;;12.50;90.20;;;;;;5067301;28;20161;-82
2023/12/22 11:44:20;;;;;;;6.00;1.70;;;12.40;90.40;;;;;;5066954;28;20054;-83
2023/12/22 11:46:47;;;;;;;10.18;2.15;;;12.30;90.90;;;;;;5061701;28;20021;-83
2023/12/22 11:49:13;;;;;;;6.15;1.30;;;12.30;91.90;;;;;;5041583;28;20167;-82
2023/12/22 11:51:39;;;;;;;12.75;1.77;;;12.20;91.10;;;;;;5058117;28;20383;-82
2023/12/22 11:54:48;;;;;;;9.13;2.15;;;12.20;91.50;;;;;;5065017;28;20029;-83
2023/12/22 11:57:32;;;;;;;8.73;1.40;;;12.20;92.10;;;;;;5060341;28;20033;-83
2023/12/22 12:00:01;;;;;;;7.38;1.85;;;12.10;91.20;;;;;;5063125;28;20043;-83
2023/12/22 12:02:29;;;;;;;8.77;1.88;;;12.10;92.10;;;;;;5065307;28;20051;-83
2023/12/22 12:05:00;;;;;;;6.55;2.00;;;12.20;91.60;;;;;;5063123;28;20155;-83
2023/12/22 12:07:44;;;;;;;9.65;2.30;;;12.20;91.10;;;;;;5061447;28;20039;-83
2023/12/22 12:10:33;;;;;;;5.82;1.67;;;12.20;92.10;;;;;;5061513;28;20032;-83
2023/12/22 12:13:10;;;;;;;11.55;3.00;;;12.30;89.50;;;;;;5050866;28;20127;-83
2023/12/22 12:15:37;;;;;;;10.57;2.30;;;12.40;90.30;;;;;;5061096;28;20033;-82
2023/12/22 12:18:04;;;;;;;6.43;2.00;;;12.50;90.20;;;;;;5063155;28;20043;-82
2023/12/22 12:20:30;;;;;;;9.73;2.13;;;12.50;90.10;;;;;;5065013;28;20111;-83
2023/12/22 12:22:56;;;;;;;6.47;1.50;;;12.50;89.00;;;;;;5065658;28;20510;-82
2023/12/22 12:25:25;;;;;;;5.68;1.50;;;12.50;89.70;;;;;;5062144;28;20033;-83
2023/12/22 12:28:08;;;;;;;8.95;1.73;;;12.50;87.90;;;;;;5064290;28;20028;-84
2023/12/22 12:30:36;;;;;;;7.60;2.03;;;12.40;90.20;;;;;;5063953;28;20036;-82
2023/12/22 12:33:10;;;;;;;8.75;2.20;;;12.50;89.80;;;;;;5061835;28;20036;-83
2023/12/22 12:35:37;;;;;;;6.63;1.73;;;12.80;88.00;;;;;;5063241;28;20033;-83
2023/12/22 12:38:04;;;;;;;9.93;1.67;;;12.90;85.30;;;;;;5064939;28;20051;-83
2023/12/22 12:40:32;;;;;;;7.82;1.30;;;13.00;84.90;;;;;;5060961;28;20064;-82
2023/12/22 12:42:59;;;;;;;7.57;1.90;;;13.00;85.30;;;;;;5034923;28;20055;-82